sensor_id;sensor_type;location;lat;lon;timestamp;P1;durP1;ratioP1;P2;durP2;ratioP2
39738;SDS011;25422;48.286;8.484;2023-06-19T00:01:54;10.90;;;7.28;;
39738;SDS011;25422;48.286;8.484;2023-06-19T00:04:19;9.32;;;8.02;;
39738;SDS011;25422;48.286;8.484;2023-06-19T00:06:45;10.13;;;8.13;;
39738;SDS011;25422;48.286;8.484;2023-06-19T00:09:10;10.88;;;7.93;;
39738;SDS011;25422;48.286;8.484;2023-06-19T00:11:35;10.77;;;7.90;;
39738;SDS011;25422;48.286;8.484;2023-06-19T00:14:01;8.82;;;7.47;;
39738;SDS011;25422;48.286;8.484;2023-06-19T00:16:26;9.35;;;7.60;;
39738;SDS011;25422;48.286;8.484;2023-06-19T00:18:52;8.95;;;7.75;;
39738;SDS011;25422;48.286;8.484;2023-06-19T00:21:21;9.07;;;8.18;;
39738;SDS011;25422;48.286;8.484;2023-06-19T00:23:48;10.57;;;7.68;;
39738;SDS011;25422;48.286;8.484;2023-06-19T00:26:14;9.52;;;7.68;;
39738;SDS011;25422;48.286;8.484;2023-06-19T00:28:41;11.85;;;8.30;;
39738;SDS011;25422;48.286;8.484;2023-06-19T00:31:08;9.60;;;8.68;;
39738;SDS011;25422;48.286;8.484;2023-06-19T00:33:34;11.10;;;8.70;;
39738;SDS011;25422;48.286;8.484;2023-06-19T00:35:59;11.18;;;6.75;;
39738;SDS011;25422;48.286;8.484;2023-06-19T00:38:26;7.65;;;6.28;;
39738;SDS011;25422;48.286;8.484;2023-06-19T00:40:51;10.18;;;7.15;;
39738;SDS011;25422;48.286;8.484;2023-06-19T00:43:17;9.10;;;6.90;;
39738;SDS011;25422;48.286;8.484;2023-06-19T00:45:43;7.72;;;6.68;;
39738;SDS011;25422;48.286;8.484;2023-06-19T00:48:08;8.18;;;6.57;;
39738;SDS011;25422;48.286;8.484;2023-06-19T00:50:34;7.60;;;6.80;;
39738;SDS011;25422;48.286;8.484;2023-06-19T00:53:00;9.43;;;6.53;;
39738;SDS011;25422;48.286;8.484;2023-06-19T00:55:28;9.73;;;6.72;;
39738;SDS011;25422;48.286;8.484;2023-06-19T00:57:57;9.90;;;6.57;;
39738;SDS011;25422;48.286;8.484;2023-06-19T01:00:25;7.63;;;6.78;;
39738;SDS011;25422;48.286;8.484;2023-06-19T01:02:50;7.05;;;6.35;;
39738;SDS011;25422;48.286;8.484;2023-06-19T01:05:16;7.70;;;6.35;;
39738;SDS011;25422;48.286;8.484;2023-06-19T01:10:48;6.97;;;5.90;;
39738;SDS011;25422;48.286;8.484;2023-06-19T01:13:19;6.65;;;5.90;;
39738;SDS011;25422;48.286;8.484;2023-06-19T01:15:52;8.25;;;5.00;;
39738;SDS011;25422;48.286;8.484;2023-06-19T01:18:18;7.55;;;5.10;;
39738;SDS011;25422;48.286;8.484;2023-06-19T01:20:44;5.90;;;5.30;;
39738;SDS011;25422;48.286;8.484;2023-06-19T01:23:10;5.38;;;4.88;;
39738;SDS011;25422;48.286;8.484;2023-06-19T01:25:36;6.18;;;4.82;;
39738;SDS011;25422;48.286;8.484;2023-06-19T01:28:03;7.47;;;4.53;;
39738;SDS011;25422;48.286;8.484;2023-06-19T01:30:31;7.70;;;4.63;;
39738;SDS011;25422;48.286;8.484;2023-06-19T01:33:04;4.88;;;4.30;;
39738;SDS011;25422;48.286;8.484;2023-06-19T01:35:35;5.60;;;4.18;;
39738;SDS011;25422;48.286;8.484;2023-06-19T01:38:03;5.97;;;4.20;;
39738;SDS011;25422;48.286;8.484;2023-06-19T01:40:31;10.68;;;4.93;;
39738;SDS011;25422;48.286;8.484;2023-06-19T01:42:58;7.07;;;4.40;;
39738;SDS011;25422;48.286;8.484;2023-06-19T01:45:27;4.75;;;4.22;;
39738;SDS011;25422;48.286;8.484;2023-06-19T01:47:54;7.20;;;4.97;;
39738;SDS011;25422;48.286;8.484;2023-06-19T01:50:20;6.47;;;4.65;;
39738;SDS011;25422;48.286;8.484;2023-06-19T01:52:47;4.57;;;4.18;;
39738;SDS011;25422;48.286;8.484;2023-06-19T01:55:12;5.75;;;4.30;;
39738;SDS011;25422;48.286;8.484;2023-06-19T01:57:39;4.63;;;4.22;;
39738;SDS011;25422;48.286;8.484;2023-06-19T02:00:05;5.10;;;4.60;;
39738;SDS011;25422;48.286;8.484;2023-06-19T02:02:39;7.53;;;4.75;;
39738;SDS011;25422;48.286;8.484;2023-06-19T02:05:04;5.95;;;4.15;;
39738;SDS011;25422;48.286;8.484;2023-06-19T02:07:30;5.45;;;4.70;;
39738;SDS011;25422;48.286;8.484;2023-06-19T02:09:56;5.63;;;4.13;;
39738;SDS011;25422;48.286;8.484;2023-06-19T02:12:22;5.30;;;4.72;;
39738;SDS011;25422;48.286;8.484;2023-06-19T02:14:47;6.90;;;4.32;;
39738;SDS011;25422;48.286;8.484;2023-06-19T02:17:13;4.65;;;3.70;;
39738;SDS011;25422;48.286;8.484;2023-06-19T02:19:38;5.53;;;3.88;;
39738;SDS011;25422;48.286;8.484;2023-06-19T02:22:04;4.72;;;4.32;;
39738;SDS011;25422;48.286;8.484;2023-06-19T02:24:29;4.97;;;4.45;;
39738;SDS011;25422;48.286;8.484;2023-06-19T02:26:55;4.47;;;4.05;;
39738;SDS011;25422;48.286;8.484;2023-06-19T02:29:23;6.63;;;3.92;;
39738;SDS011;25422;48.286;8.484;2023-06-19T02:31:48;4.40;;;3.80;;
39738;SDS011;25422;48.286;8.484;2023-06-19T02:34:14;4.10;;;3.55;;
39738;SDS011;25422;48.286;8.484;2023-06-19T02:36:40;3.92;;;3.55;;
39738;SDS011;25422;48.286;8.484;2023-06-19T02:39:07;5.60;;;3.50;;
39738;SDS011;25422;48.286;8.484;2023-06-19T02:41:33;3.45;;;3.15;;
39738;SDS011;25422;48.286;8.484;2023-06-19T02:43:59;3.40;;;3.10;;
39738;SDS011;25422;48.286;8.484;2023-06-19T02:46:24;3.55;;;3.15;;
39738;SDS011;25422;48.286;8.484;2023-06-19T02:48:50;3.13;;;2.83;;
39738;SDS011;25422;48.286;8.484;2023-06-19T02:51:15;3.35;;;3.05;;
39738;SDS011;25422;48.286;8.484;2023-06-19T02:53:41;6.38;;;3.28;;
39738;SDS011;25422;48.286;8.484;2023-06-19T02:56:08;5.55;;;3.10;;
39738;SDS011;25422;48.286;8.484;2023-06-19T02:58:33;3.72;;;3.05;;
39738;SDS011;25422;48.286;8.484;2023-06-19T03:00:59;5.85;;;3.55;;
39738;SDS011;25422;48.286;8.484;2023-06-19T03:03:25;4.57;;;3.70;;
39738;SDS011;25422;48.286;8.484;2023-06-19T03:05:50;4.75;;;3.63;;
39738;SDS011;25422;48.286;8.484;2023-06-19T03:08:16;4.72;;;4.00;;
39738;SDS011;25422;48.286;8.484;2023-06-19T03:10:41;6.63;;;3.80;;
39738;SDS011;25422;48.286;8.484;2023-06-19T03:13:07;4.07;;;3.42;;
39738;SDS011;25422;48.286;8.484;2023-06-19T03:15:32;6.40;;;3.65;;
39738;SDS011;25422;48.286;8.484;2023-06-19T03:17:58;7.70;;;3.88;;
39738;SDS011;25422;48.286;8.484;2023-06-19T03:20:29;3.90;;;3.50;;
39738;SDS011;25422;48.286;8.484;2023-06-19T03:22:56;5.68;;;4.10;;
39738;SDS011;25422;48.286;8.484;2023-06-19T03:25:23;5.63;;;4.05;;
39738;SDS011;25422;48.286;8.484;2023-06-19T03:27:49;5.00;;;4.50;;
39738;SDS011;25422;48.286;8.484;2023-06-19T03:30:14;5.25;;;3.85;;
39738;SDS011;25422;48.286;8.484;2023-06-19T03:32:44;4.53;;;4.13;;
39738;SDS011;25422;48.286;8.484;2023-06-19T03:35:19;6.47;;;4.20;;
39738;SDS011;25422;48.286;8.484;2023-06-19T03:37:45;6.07;;;4.70;;
39738;SDS011;25422;48.286;8.484;2023-06-19T03:40:11;6.68;;;4.55;;
39738;SDS011;25422;48.286;8.484;2023-06-19T03:42:41;6.75;;;4.57;;
39738;SDS011;25422;48.286;8.484;2023-06-19T03:45:07;5.47;;;4.43;;
39738;SDS011;25422;48.286;8.484;2023-06-19T03:47:33;5.63;;;4.50;;
39738;SDS011;25422;48.286;8.484;2023-06-19T03:49:59;8.43;;;4.80;;
39738;SDS011;25422;48.286;8.484;2023-06-19T03:52:24;6.07;;;4.60;;
39738;SDS011;25422;48.286;8.484;2023-06-19T03:54:50;4.72;;;4.28;;
39738;SDS011;25422;48.286;8.484;2023-06-19T03:57:15;5.25;;;4.72;;
39738;SDS011;25422;48.286;8.484;2023-06-19T03:59:41;6.07;;;4.57;;
39738;SDS011;25422;48.286;8.484;2023-06-19T04:02:09;6.45;;;5.53;;
39738;SDS011;25422;48.286;8.484;2023-06-19T04:04:35;5.35;;;4.82;;
39738;SDS011;25422;48.286;8.484;2023-06-19T04:07:00;6.30;;;5.70;;
39738;SDS011;25422;48.286;8.484;2023-06-19T04:09:25;6.20;;;5.55;;
39738;SDS011;25422;48.286;8.484;2023-06-19T04:11:52;6.18;;;4.90;;
39738;SDS011;25422;48.286;8.484;2023-06-19T04:14:18;8.65;;;5.10;;
39738;SDS011;25422;48.286;8.484;2023-06-19T04:16:43;5.85;;;5.25;;
39738;SDS011;25422;48.286;8.484;2023-06-19T04:19:09;5.85;;;5.10;;
39738;SDS011;25422;48.286;8.484;2023-06-19T04:21:34;5.63;;;5.03;;
39738;SDS011;25422;48.286;8.484;2023-06-19T04:24:00;6.63;;;5.20;;
39738;SDS011;25422;48.286;8.484;2023-06-19T04:26:25;6.40;;;4.80;;
39738;SDS011;25422;48.286;8.484;2023-06-19T04:28:50;6.00;;;5.10;;
39738;SDS011;25422;48.286;8.484;2023-06-19T04:31:16;6.70;;;4.90;;
39738;SDS011;25422;48.286;8.484;2023-06-19T04:33:44;6.05;;;5.45;;
39738;SDS011;25422;48.286;8.484;2023-06-19T04:36:10;6.15;;;5.63;;
39738;SDS011;25422;48.286;8.484;2023-06-19T04:38:35;6.13;;;5.50;;
39738;SDS011;25422;48.286;8.484;2023-06-19T04:41:01;6.38;;;5.53;;
39738;SDS011;25422;48.286;8.484;2023-06-19T04:43:26;6.18;;;5.57;;
39738;SDS011;25422;48.286;8.484;2023-06-19T04:45:51;9.05;;;6.10;;
39738;SDS011;25422;48.286;8.484;2023-06-19T04:48:17;6.72;;;6.00;;
39738;SDS011;25422;48.286;8.484;2023-06-19T04:50:42;7.40;;;6.28;;
39738;SDS011;25422;48.286;8.484;2023-06-19T04:53:08;7.35;;;6.30;;
39738;SDS011;25422;48.286;8.484;2023-06-19T04:55:33;6.93;;;6.22;;
39738;SDS011;25422;48.286;8.484;2023-06-19T04:57:59;7.75;;;6.47;;
39738;SDS011;25422;48.286;8.484;2023-06-19T05:00:24;10.10;;;6.47;;
39738;SDS011;25422;48.286;8.484;2023-06-19T05:02:50;7.28;;;5.82;;
39738;SDS011;25422;48.286;8.484;2023-06-19T05:05:16;6.95;;;6.25;;
39738;SDS011;25422;48.286;8.484;2023-06-19T05:07:42;6.60;;;6.00;;
39738;SDS011;25422;48.286;8.484;2023-06-19T05:10:07;6.90;;;6.20;;
39738;SDS011;25422;48.286;8.484;2023-06-19T05:12:36;8.15;;;6.30;;
39738;SDS011;25422;48.286;8.484;2023-06-19T05:15:02;7.63;;;6.43;;
39738;SDS011;25422;48.286;8.484;2023-06-19T05:17:28;7.20;;;6.50;;
39738;SDS011;25422;48.286;8.484;2023-06-19T05:19:53;7.22;;;6.15;;
39738;SDS011;25422;48.286;8.484;2023-06-19T05:22:19;7.50;;;5.93;;
39738;SDS011;25422;48.286;8.484;2023-06-19T05:24:46;8.43;;;7.05;;
39738;SDS011;25422;48.286;8.484;2023-06-19T05:27:12;10.02;;;7.35;;
39738;SDS011;25422;48.286;8.484;2023-06-19T05:29:37;13.02;;;10.30;;
39738;SDS011;25422;48.286;8.484;2023-06-19T05:32:02;7.90;;;7.10;;
39738;SDS011;25422;48.286;8.484;2023-06-19T05:34:28;9.93;;;6.65;;
39738;SDS011;25422;48.286;8.484;2023-06-19T05:36:53;8.00;;;6.68;;
39738;SDS011;25422;48.286;8.484;2023-06-19T05:39:19;8.15;;;6.72;;
39738;SDS011;25422;48.286;8.484;2023-06-19T05:41:44;9.10;;;6.88;;
39738;SDS011;25422;48.286;8.484;2023-06-19T05:44:11;7.30;;;6.38;;
39738;SDS011;25422;48.286;8.484;2023-06-19T05:46:40;7.43;;;6.63;;
39738;SDS011;25422;48.286;8.484;2023-06-19T05:49:05;6.93;;;6.32;;
39738;SDS011;25422;48.286;8.484;2023-06-19T05:51:31;7.20;;;6.50;;
39738;SDS011;25422;48.286;8.484;2023-06-19T05:53:56;7.20;;;6.50;;
39738;SDS011;25422;48.286;8.484;2023-06-19T05:56:26;7.47;;;6.65;;
39738;SDS011;25422;48.286;8.484;2023-06-19T05:58:51;6.85;;;6.25;;
39738;SDS011;25422;48.286;8.484;2023-06-19T06:01:16;6.43;;;5.70;;
39738;SDS011;25422;48.286;8.484;2023-06-19T06:03:42;6.45;;;5.85;;
39738;SDS011;25422;48.286;8.484;2023-06-19T06:06:08;5.50;;;5.03;;
39738;SDS011;25422;48.286;8.484;2023-06-19T06:08:33;6.38;;;5.78;;
39738;SDS011;25422;48.286;8.484;2023-06-19T06:10:59;5.90;;;5.30;;
39738;SDS011;25422;48.286;8.484;2023-06-19T06:13:25;6.35;;;5.75;;
39738;SDS011;25422;48.286;8.484;2023-06-19T06:15:50;6.32;;;5.72;;
39738;SDS011;25422;48.286;8.484;2023-06-19T06:18:16;5.28;;;4.78;;
39738;SDS011;25422;48.286;8.484;2023-06-19T06:20:41;6.93;;;5.53;;
39738;SDS011;25422;48.286;8.484;2023-06-19T06:23:07;5.55;;;5.03;;
39738;SDS011;25422;48.286;8.484;2023-06-19T06:25:32;6.93;;;5.40;;
39738;SDS011;25422;48.286;8.484;2023-06-19T06:27:57;5.70;;;5.18;;
39738;SDS011;25422;48.286;8.484;2023-06-19T06:30:23;5.78;;;4.85;;
39738;SDS011;25422;48.286;8.484;2023-06-19T06:32:48;5.47;;;4.30;;
39738;SDS011;25422;48.286;8.484;2023-06-19T06:35:15;4.50;;;4.10;;
39738;SDS011;25422;48.286;8.484;2023-06-19T06:37:40;4.68;;;4.20;;
39738;SDS011;25422;48.286;8.484;2023-06-19T06:40:06;4.30;;;3.80;;
39738;SDS011;25422;48.286;8.484;2023-06-19T06:42:36;4.25;;;3.88;;
39738;SDS011;25422;48.286;8.484;2023-06-19T06:45:02;4.18;;;3.60;;
39738;SDS011;25422;48.286;8.484;2023-06-19T06:47:29;5.07;;;3.65;;
39738;SDS011;25422;48.286;8.484;2023-06-19T06:49:54;4.80;;;3.90;;
39738;SDS011;25422;48.286;8.484;2023-06-19T06:52:20;4.05;;;3.67;;
39738;SDS011;25422;48.286;8.484;2023-06-19T06:54:45;4.53;;;4.13;;
39738;SDS011;25422;48.286;8.484;2023-06-19T06:57:10;4.22;;;3.78;;
39738;SDS011;25422;48.286;8.484;2023-06-19T06:59:36;6.72;;;4.20;;
39738;SDS011;25422;48.286;8.484;2023-06-19T07:02:01;4.20;;;3.88;;
39738;SDS011;25422;48.286;8.484;2023-06-19T07:04:27;4.20;;;3.80;;
39738;SDS011;25422;48.286;8.484;2023-06-19T07:06:53;3.60;;;3.30;;
39738;SDS011;25422;48.286;8.484;2023-06-19T07:09:18;4.03;;;3.50;;
39738;SDS011;25422;48.286;8.484;2023-06-19T07:11:44;4.25;;;3.50;;
39738;SDS011;25422;48.286;8.484;2023-06-19T07:14:09;3.63;;;3.33;;
39738;SDS011;25422;48.286;8.484;2023-06-19T07:16:35;3.85;;;3.55;;
39738;SDS011;25422;48.286;8.484;2023-06-19T07:19:00;4.00;;;3.38;;
39738;SDS011;25422;48.286;8.484;2023-06-19T07:21:26;3.80;;;3.50;;
39738;SDS011;25422;48.286;8.484;2023-06-19T07:23:53;3.50;;;3.20;;
39738;SDS011;25422;48.286;8.484;2023-06-19T07:26:18;3.70;;;3.38;;
39738;SDS011;25422;48.286;8.484;2023-06-19T07:28:44;3.88;;;3.47;;
39738;SDS011;25422;48.286;8.484;2023-06-19T07:31:09;4.38;;;3.72;;
39738;SDS011;25422;48.286;8.484;2023-06-19T07:33:34;4.38;;;3.72;;
39738;SDS011;25422;48.286;8.484;2023-06-19T07:36:00;3.90;;;3.60;;
39738;SDS011;25422;48.286;8.484;2023-06-19T07:38:27;4.65;;;3.80;;
39738;SDS011;25422;48.286;8.484;2023-06-19T07:40:53;2.85;;;2.65;;
39738;SDS011;25422;48.286;8.484;2023-06-19T07:43:19;3.80;;;3.10;;
39738;SDS011;25422;48.286;8.484;2023-06-19T07:45:44;3.15;;;2.90;;
39738;SDS011;25422;48.286;8.484;2023-06-19T07:48:09;2.10;;;2.00;;
39738;SDS011;25422;48.286;8.484;2023-06-19T07:50:35;1.77;;;1.67;;
39738;SDS011;25422;48.286;8.484;2023-06-19T07:53:00;1.85;;;1.75;;
39738;SDS011;25422;48.286;8.484;2023-06-19T07:55:26;1.58;;;1.48;;
39738;SDS011;25422;48.286;8.484;2023-06-19T07:57:51;1.80;;;1.70;;
39738;SDS011;25422;48.286;8.484;2023-06-19T08:00:17;1.70;;;1.60;;
39738;SDS011;25422;48.286;8.484;2023-06-19T08:02:43;1.60;;;1.50;;
39738;SDS011;25422;48.286;8.484;2023-06-19T08:05:09;1.50;;;1.40;;
39738;SDS011;25422;48.286;8.484;2023-06-19T08:07:35;1.75;;;1.65;;
39738;SDS011;25422;48.286;8.484;2023-06-19T08:10:00;1.73;;;1.52;;
39738;SDS011;25422;48.286;8.484;2023-06-19T08:12:26;1.77;;;1.63;;
39738;SDS011;25422;48.286;8.484;2023-06-19T08:14:51;1.70;;;1.60;;
39738;SDS011;25422;48.286;8.484;2023-06-19T08:17:17;3.13;;;1.80;;
39738;SDS011;25422;48.286;8.484;2023-06-19T08:19:42;2.00;;;1.50;;
39738;SDS011;25422;48.286;8.484;2023-06-19T08:22:08;2.03;;;1.92;;
39738;SDS011;25422;48.286;8.484;2023-06-19T08:24:34;2.47;;;1.85;;
39738;SDS011;25422;48.286;8.484;2023-06-19T08:27:05;1.70;;;1.60;;
39738;SDS011;25422;48.286;8.484;2023-06-19T08:29:30;2.30;;;2.00;;
39738;SDS011;25422;48.286;8.484;2023-06-19T08:31:55;2.30;;;2.10;;
39738;SDS011;25422;48.286;8.484;2023-06-19T08:34:21;2.22;;;1.92;;
39738;SDS011;25422;48.286;8.484;2023-06-19T08:36:46;2.35;;;2.10;;
39738;SDS011;25422;48.286;8.484;2023-06-19T08:39:11;1.88;;;1.77;;
39738;SDS011;25422;48.286;8.484;2023-06-19T08:41:37;2.97;;;2.10;;
39738;SDS011;25422;48.286;8.484;2023-06-19T08:44:03;3.95;;;2.03;;
39738;SDS011;25422;48.286;8.484;2023-06-19T08:46:30;3.00;;;2.00;;
39738;SDS011;25422;48.286;8.484;2023-06-19T08:48:55;2.30;;;2.10;;
39738;SDS011;25422;48.286;8.484;2023-06-19T08:51:21;3.05;;;2.20;;
39738;SDS011;25422;48.286;8.484;2023-06-19T08:53:54;2.92;;;2.30;;
39738;SDS011;25422;48.286;8.484;2023-06-19T08:56:21;4.78;;;2.55;;
39738;SDS011;25422;48.286;8.484;2023-06-19T08:58:47;3.40;;;2.10;;
39738;SDS011;25422;48.286;8.484;2023-06-19T09:01:16;3.40;;;2.38;;
39738;SDS011;25422;48.286;8.484;2023-06-19T09:03:43;2.90;;;2.63;;
39738;SDS011;25422;48.286;8.484;2023-06-19T09:06:09;4.22;;;2.45;;
39738;SDS011;25422;48.286;8.484;2023-06-19T09:08:35;5.05;;;2.33;;
39738;SDS011;25422;48.286;8.484;2023-06-19T09:11:02;3.28;;;2.92;;
39738;SDS011;25422;48.286;8.484;2023-06-19T09:13:29;4.05;;;2.70;;
39738;SDS011;25422;48.286;8.484;2023-06-19T09:16:04;3.08;;;2.78;;
39738;SDS011;25422;48.286;8.484;2023-06-19T09:18:31;4.70;;;3.05;;
39738;SDS011;25422;48.286;8.484;2023-06-19T09:21:06;3.08;;;2.58;;
39738;SDS011;25422;48.286;8.484;2023-06-19T09:23:40;4.13;;;2.72;;
39738;SDS011;25422;48.286;8.484;2023-06-19T09:26:06;6.25;;;3.05;;
39738;SDS011;25422;48.286;8.484;2023-06-19T09:28:33;4.10;;;2.90;;
39738;SDS011;25422;48.286;8.484;2023-06-19T09:31:05;3.30;;;2.97;;
39738;SDS011;25422;48.286;8.484;2023-06-19T09:33:32;3.40;;;3.10;;
39738;SDS011;25422;48.286;8.484;2023-06-19T09:36:00;3.53;;;3.28;;
39738;SDS011;25422;48.286;8.484;2023-06-19T09:38:27;3.25;;;2.70;;
39738;SDS011;25422;48.286;8.484;2023-06-19T09:40:55;8.45;;;3.10;;
39738;SDS011;25422;48.286;8.484;2023-06-19T09:43:23;3.65;;;2.97;;
39738;SDS011;25422;48.286;8.484;2023-06-19T09:48:19;4.47;;;3.00;;
39738;SDS011;25422;48.286;8.484;2023-06-19T09:50:51;3.00;;;2.70;;
39738;SDS011;25422;48.286;8.484;2023-06-19T09:53:20;4.13;;;3.70;;
39738;SDS011;25422;48.286;8.484;2023-06-19T09:55:49;2.90;;;2.70;;
39738;SDS011;25422;48.286;8.484;2023-06-19T09:58:18;3.45;;;2.70;;
39738;SDS011;25422;48.286;8.484;2023-06-19T10:00:45;3.60;;;3.00;;
39738;SDS011;25422;48.286;8.484;2023-06-19T10:03:13;3.88;;;2.95;;
39738;SDS011;25422;48.286;8.484;2023-06-19T10:05:38;5.20;;;3.00;;
39738;SDS011;25422;48.286;8.484;2023-06-19T10:08:05;4.43;;;2.67;;
39738;SDS011;25422;48.286;8.484;2023-06-19T10:10:31;5.00;;;2.70;;
39738;SDS011;25422;48.286;8.484;2023-06-19T10:12:59;2.80;;;2.33;;
39738;SDS011;25422;48.286;8.484;2023-06-19T10:15:26;4.20;;;2.83;;
39738;SDS011;25422;48.286;8.484;2023-06-19T10:17:54;3.45;;;3.15;;
39738;SDS011;25422;48.286;8.484;2023-06-19T10:20:26;3.63;;;2.83;;
39738;SDS011;25422;48.286;8.484;2023-06-19T10:25:23;4.13;;;2.92;;
39738;SDS011;25422;48.286;8.484;2023-06-19T10:30:20;3.30;;;3.00;;
39738;SDS011;25422;48.286;8.484;2023-06-19T10:32:46;4.20;;;3.00;;
39738;SDS011;25422;48.286;8.484;2023-06-19T10:35:13;3.05;;;2.70;;
39738;SDS011;25422;48.286;8.484;2023-06-19T10:37:40;3.33;;;3.03;;
39738;SDS011;25422;48.286;8.484;2023-06-19T10:40:06;3.95;;;3.00;;
39738;SDS011;25422;48.286;8.484;2023-06-19T10:42:39;3.05;;;2.28;;
39738;SDS011;25422;48.286;8.484;2023-06-19T10:45:05;4.43;;;2.97;;
39738;SDS011;25422;48.286;8.484;2023-06-19T10:47:32;4.30;;;2.80;;
39738;SDS011;25422;48.286;8.484;2023-06-19T10:49:58;4.30;;;2.60;;
39738;SDS011;25422;48.286;8.484;2023-06-19T10:52:23;3.42;;;2.88;;
39738;SDS011;25422;48.286;8.484;2023-06-19T10:54:56;2.50;;;2.30;;
39738;SDS011;25422;48.286;8.484;2023-06-19T10:57:28;2.78;;;2.50;;
39738;SDS011;25422;48.286;8.484;2023-06-19T10:59:54;4.10;;;3.13;;
39738;SDS011;25422;48.286;8.484;2023-06-19T11:02:20;2.78;;;2.58;;
39738;SDS011;25422;48.286;8.484;2023-06-19T11:04:46;2.90;;;2.65;;
39738;SDS011;25422;48.286;8.484;2023-06-19T11:07:11;3.65;;;3.33;;
39738;SDS011;25422;48.286;8.484;2023-06-19T11:09:37;2.90;;;2.60;;
39738;SDS011;25422;48.286;8.484;2023-06-19T11:12:03;3.00;;;2.70;;
39738;SDS011;25422;48.286;8.484;2023-06-19T11:14:29;2.97;;;2.67;;
39738;SDS011;25422;48.286;8.484;2023-06-19T11:16:55;3.13;;;2.88;;
39738;SDS011;25422;48.286;8.484;2023-06-19T11:19:21;2.63;;;2.38;;
39738;SDS011;25422;48.286;8.484;2023-06-19T11:21:48;2.95;;;2.75;;
39738;SDS011;25422;48.286;8.484;2023-06-19T11:24:15;3.15;;;2.60;;
39738;SDS011;25422;48.286;8.484;2023-06-19T11:26:42;4.10;;;2.78;;
39738;SDS011;25422;48.286;8.484;2023-06-19T11:29:15;3.55;;;2.67;;
39738;SDS011;25422;48.286;8.484;2023-06-19T11:31:41;11.05;;;3.35;;
39738;SDS011;25422;48.286;8.484;2023-06-19T11:34:06;3.60;;;2.55;;
39738;SDS011;25422;48.286;8.484;2023-06-19T11:36:31;2.75;;;2.55;;
39738;SDS011;25422;48.286;8.484;2023-06-19T11:38:57;3.25;;;2.95;;
39738;SDS011;25422;48.286;8.484;2023-06-19T11:41:26;2.97;;;2.55;;
39738;SDS011;25422;48.286;8.484;2023-06-19T11:44:06;3.10;;;2.80;;
39738;SDS011;25422;48.286;8.484;2023-06-19T11:46:35;3.40;;;3.10;;
39738;SDS011;25422;48.286;8.484;2023-06-19T11:49:16;3.20;;;2.90;;
39738;SDS011;25422;48.286;8.484;2023-06-19T11:51:45;3.00;;;2.58;;
39738;SDS011;25422;48.286;8.484;2023-06-19T11:54:11;2.97;;;2.70;;
39738;SDS011;25422;48.286;8.484;2023-06-19T11:56:40;4.03;;;3.00;;
39738;SDS011;25422;48.286;8.484;2023-06-19T11:59:06;4.40;;;4.00;;
39738;SDS011;25422;48.286;8.484;2023-06-19T12:01:33;3.88;;;3.35;;
39738;SDS011;25422;48.286;8.484;2023-06-19T12:04:00;3.50;;;3.20;;
39738;SDS011;25422;48.286;8.484;2023-06-19T12:06:26;3.42;;;3.10;;
39738;SDS011;25422;48.286;8.484;2023-06-19T12:08:52;5.10;;;2.85;;
39738;SDS011;25422;48.286;8.484;2023-06-19T12:11:17;3.20;;;2.90;;
39738;SDS011;25422;48.286;8.484;2023-06-19T12:13:43;3.10;;;2.90;;
39738;SDS011;25422;48.286;8.484;2023-06-19T12:16:11;3.42;;;2.83;;
39738;SDS011;25422;48.286;8.484;2023-06-19T12:18:37;4.50;;;2.80;;
39738;SDS011;25422;48.286;8.484;2023-06-19T12:21:03;3.70;;;3.05;;
39738;SDS011;25422;48.286;8.484;2023-06-19T12:23:29;3.30;;;3.00;;
39738;SDS011;25422;48.286;8.484;2023-06-19T12:25:54;3.40;;;3.10;;
39738;SDS011;25422;48.286;8.484;2023-06-19T12:28:20;5.10;;;3.20;;
39738;SDS011;25422;48.286;8.484;2023-06-19T12:30:46;4.50;;;2.92;;
39738;SDS011;25422;48.286;8.484;2023-06-19T12:33:13;3.30;;;3.00;;
39738;SDS011;25422;48.286;8.484;2023-06-19T12:35:39;7.07;;;3.30;;
39738;SDS011;25422;48.286;8.484;2023-06-19T12:38:06;4.85;;;3.58;;
39738;SDS011;25422;48.286;8.484;2023-06-19T12:40:32;3.80;;;3.15;;
39738;SDS011;25422;48.286;8.484;2023-06-19T12:42:58;3.60;;;2.90;;
39738;SDS011;25422;48.286;8.484;2023-06-19T12:45:23;5.78;;;3.13;;
39738;SDS011;25422;48.286;8.484;2023-06-19T12:47:49;6.45;;;3.25;;
39738;SDS011;25422;48.286;8.484;2023-06-19T12:50:14;3.40;;;3.10;;
39738;SDS011;25422;48.286;8.484;2023-06-19T12:52:40;3.50;;;3.20;;
39738;SDS011;25422;48.286;8.484;2023-06-19T12:55:06;4.55;;;3.30;;
39738;SDS011;25422;48.286;8.484;2023-06-19T12:57:31;3.50;;;3.20;;
39738;SDS011;25422;48.286;8.484;2023-06-19T12:59:57;3.08;;;2.83;;
39738;SDS011;25422;48.286;8.484;2023-06-19T13:02:22;4.47;;;2.92;;
39738;SDS011;25422;48.286;8.484;2023-06-19T13:04:48;3.50;;;2.92;;
39738;SDS011;25422;48.286;8.484;2023-06-19T13:07:13;3.00;;;2.80;;
39738;SDS011;25422;48.286;8.484;2023-06-19T13:09:39;3.15;;;2.83;;
39738;SDS011;25422;48.286;8.484;2023-06-19T13:12:04;4.78;;;2.85;;
39738;SDS011;25422;48.286;8.484;2023-06-19T13:14:30;3.30;;;3.00;;
39738;SDS011;25422;48.286;8.484;2023-06-19T13:16:57;5.28;;;3.10;;
39738;SDS011;25422;48.286;8.484;2023-06-19T13:19:23;4.88;;;3.20;;
39738;SDS011;25422;48.286;8.484;2023-06-19T13:21:48;5.40;;;3.03;;
39738;SDS011;25422;48.286;8.484;2023-06-19T13:24:13;3.53;;;2.88;;
39738;SDS011;25422;48.286;8.484;2023-06-19T13:26:39;6.28;;;3.08;;
39738;SDS011;25422;48.286;8.484;2023-06-19T13:29:04;2.80;;;2.60;;
39738;SDS011;25422;48.286;8.484;2023-06-19T13:31:30;3.42;;;3.13;;
39738;SDS011;25422;48.286;8.484;2023-06-19T13:33:55;5.03;;;3.10;;
39738;SDS011;25422;48.286;8.484;2023-06-19T13:36:21;4.03;;;3.10;;
39738;SDS011;25422;48.286;8.484;2023-06-19T13:38:48;3.40;;;3.10;;
39738;SDS011;25422;48.286;8.484;2023-06-19T13:41:13;4.18;;;3.38;;
39738;SDS011;25422;48.286;8.484;2023-06-19T13:43:38;3.88;;;3.08;;
39738;SDS011;25422;48.286;8.484;2023-06-19T13:46:07;3.38;;;3.08;;
39738;SDS011;25422;48.286;8.484;2023-06-19T13:48:33;4.30;;;3.22;;
39738;SDS011;25422;48.286;8.484;2023-06-19T13:50:59;4.43;;;3.50;;
39738;SDS011;25422;48.286;8.484;2023-06-19T13:53:25;5.88;;;3.67;;
39738;SDS011;25422;48.286;8.484;2023-06-19T13:55:53;6.13;;;4.10;;
39738;SDS011;25422;48.286;8.484;2023-06-19T13:58:19;3.95;;;3.55;;
39738;SDS011;25422;48.286;8.484;2023-06-19T14:00:44;5.25;;;3.88;;
39738;SDS011;25422;48.286;8.484;2023-06-19T14:03:09;5.10;;;3.90;;
39738;SDS011;25422;48.286;8.484;2023-06-19T14:05:35;5.53;;;4.05;;
39738;SDS011;25422;48.286;8.484;2023-06-19T14:08:01;4.65;;;3.67;;
39738;SDS011;25422;48.286;8.484;2023-06-19T14:10:28;4.57;;;3.85;;
39738;SDS011;25422;48.286;8.484;2023-06-19T14:12:53;5.78;;;3.90;;
39738;SDS011;25422;48.286;8.484;2023-06-19T14:15:19;4.38;;;3.97;;
39738;SDS011;25422;48.286;8.484;2023-06-19T14:17:45;4.10;;;3.72;;
39738;SDS011;25422;48.286;8.484;2023-06-19T14:20:10;5.28;;;4.15;;
39738;SDS011;25422;48.286;8.484;2023-06-19T14:22:36;4.22;;;3.85;;
39738;SDS011;25422;48.286;8.484;2023-06-19T14:25:02;4.75;;;3.75;;
39738;SDS011;25422;48.286;8.484;2023-06-19T14:27:27;4.82;;;4.32;;
39738;SDS011;25422;48.286;8.484;2023-06-19T14:29:56;7.35;;;3.80;;
39738;SDS011;25422;48.286;8.484;2023-06-19T14:32:22;4.50;;;3.97;;
39738;SDS011;25422;48.286;8.484;2023-06-19T14:34:49;3.92;;;3.60;;
39738;SDS011;25422;48.286;8.484;2023-06-19T14:37:14;4.47;;;4.07;;
39738;SDS011;25422;48.286;8.484;2023-06-19T14:39:40;4.57;;;3.88;;
39738;SDS011;25422;48.286;8.484;2023-06-19T14:42:05;5.55;;;4.40;;
39738;SDS011;25422;48.286;8.484;2023-06-19T14:44:31;3.95;;;3.55;;
39738;SDS011;25422;48.286;8.484;2023-06-19T14:46:57;4.43;;;4.00;;
39738;SDS011;25422;48.286;8.484;2023-06-19T14:49:23;7.20;;;4.30;;
39738;SDS011;25422;48.286;8.484;2023-06-19T14:51:48;4.90;;;3.60;;
39738;SDS011;25422;48.286;8.484;2023-06-19T14:54:14;5.38;;;4.20;;